Coral, Illinois
Current Conditions -  °F | °C
As of 1:55 AM on Friday 19 Dec 2014 (Local Time) from KDKB Reporting Station
Overcast Overcast  
Wind Chill: 17°   Ceiling: 2500
Heat Index: 24°   Visibility: 10mi
Dew Point: 19°   Wind: 6mph
Humidity: 82%   Direction: 280°W
Pressure: 30.27"   Gusts: NA
Location:  42.2385°N, 88.6273°W
Report Text: KDKB 190755Z AUTO 28005KT 10SM OVC025 M04/M07 A3027 RMK AO2 T10451072
Loading
Personal Weather Stations






























Interactive Weather Map New forecast layout! Learn more

10-Day Weather Forecast

Advertisements
Track Severe Weather on mobile